Terminal Aerodrome Forecast
Issued by NWS

Home | Current Version | Previous Version | Text Only | Print | Product List | Glossary On
Versions: 1 2 3 4 5 6 7 8 9 10 11 12 13 14 15 16 17 18 19 20 21 22 23 24 25 26 27 28 29 30 31 32 33 34 35 36 37 38 39 40 41 42 43 44 45 46 47 48 49 50
000
FTUS45 KBOU 180904 AAA
TAFAPA
TAF AMD
KAPA 180904Z 1809/1906 32013G21KT P6SM FEW015
     FM181200 31011KT P6SM SCT006 BKN010
      TEMPO 1812/1816 2SM BR SCT003 OVC006
     FM181600 02011KT P6SM SCT025 BKN060
     FM181900 04011KT P6SM SCT050 BKN080
      TEMPO 1821/1901 VRB20G35KT +TSRA BKN035CB OVC050
     FM190100 30010KT P6SM VCSH SCT025 BKN060=

USA.gov is the U.S. government's official web portal to all federal, state and local government web resources and services.